createdAt,value
2017-04-22T00:00:00.166Z,6.64
2017-04-22T00:00:04.592Z,6.65
2017-04-22T00:00:09.017Z,6.65
2017-04-22T00:00:13.092Z,6.65
2017-04-22T00:00:17.749Z,6.61
2017-04-22T00:00:22.169Z,6.69
2017-04-22T00:00:26.605Z,6.65
2017-04-22T00:00:31.035Z,6.68
2017-04-22T00:00:35.340Z,6.6
2017-04-22T00:00:39.663Z,6.63
2017-04-22T00:00:43.966Z,6.65
2017-04-22T00:00:48.271Z,6.64
2017-04-22T00:00:52.694Z,6.63
2017-04-22T00:00:56.998Z,6.63
2017-04-22T00:01:01.304Z,6.65
2017-04-22T00:01:05.492Z,6.65
2017-04-22T00:01:09.809Z,6.69
2017-04-22T00:01:14.154Z,6.69
2017-04-22T00:01:18.592Z,6.64
2017-04-22T00:01:23.059Z,6.69
2017-04-22T00:01:27.685Z,6.57
2017-04-22T00:01:32.108Z,6.65
2017-04-22T00:01:36.417Z,6.6
2017-04-22T00:01:40.839Z,6.64
2017-04-22T00:01:45.142Z,6.58
2017-04-22T00:01:49.444Z,6.63
2017-04-22T00:01:53.750Z,6.64
2017-04-22T00:01:58.095Z,6.57
2017-04-22T00:02:02.528Z,6.64
2017-04-22T00:02:06.843Z,6.61
2017-04-22T00:02:11.156Z,6.65
2017-04-22T00:02:15.589Z,6.64
2017-04-22T00:02:20.050Z,6.68
2017-04-22T00:02:24.352Z,6.65
2017-04-22T00:02:28.776Z,6.6
2017-04-22T00:02:33.200Z,6.65
2017-04-22T00:02:37.726Z,6.64
2017-04-22T00:02:42.167Z,6.58
2017-04-22T00:02:46.478Z,6.6
2017-04-22T00:02:50.793Z,6.6
2017-04-22T00:02:55.221Z,6.63
2017-04-22T00:02:59.658Z,6.61
2017-04-22T00:03:04.084Z,6.63
2017-04-22T00:03:08.504Z,6.57
2017-04-22T00:03:12.699Z,6.55
2017-04-22T00:03:17.001Z,6.61
2017-04-22T00:03:21.429Z,6.63
2017-04-22T00:03:25.873Z,6.64
2017-04-22T00:03:30.302Z,6.6
2017-04-22T00:03:34.612Z,6.57
2017-04-22T00:03:39.032Z,6.53
2017-04-22T00:03:43.237Z,6.61
2017-04-22T00:03:47.676Z,6.6
2017-04-22T00:03:52.129Z,6.61
2017-04-22T00:03:56.563Z,6.6
2017-04-22T00:04:01.000Z,6.6
2017-04-22T00:04:05.556Z,6.65
2017-04-22T00:04:09.890Z,6.6
2017-04-22T00:04:14.097Z,6.57
2017-04-22T00:04:18.517Z,6.57
2017-04-22T00:04:22.824Z,6.6
2017-04-22T00:04:27.249Z,6.57
2017-04-22T00:04:31.675Z,6.65
2017-04-22T00:04:36.102Z,6.57
2017-04-22T00:04:40.523Z,6.57
2017-04-22T00:04:44.835Z,6.55
2017-04-22T00:04:49.150Z,6.61
2017-04-22T00:04:53.886Z,6.57
2017-04-22T00:04:58.325Z,6.55
2017-04-22T00:05:02.755Z,6.61
2017-04-22T00:05:07.058Z,6.54
2017-04-22T00:05:11.478Z,6.58
2017-04-22T00:05:15.553Z,6.6
2017-04-22T00:05:19.863Z,6.58
2017-04-22T00:05:24.163Z,6.55
2017-04-22T00:05:28.585Z,6.55
2017-04-22T00:05:33.012Z,6.63
2017-04-22T00:05:37.320Z,6.54
2017-04-22T00:05:41.752Z,6.57
2017-04-22T00:05:46.055Z,6.61
2017-04-22T00:05:50.364Z,6.58
2017-04-22T00:05:54.685Z,6.58
2017-04-22T00:05:59.107Z,6.57
2017-04-22T00:06:03.576Z,6.54
2017-04-22T00:06:08.007Z,6.53
2017-04-22T00:06:12.312Z,6.55
2017-04-22T00:06:16.618Z,6.53
2017-04-22T00:06:20.815Z,6.54
2017-04-22T00:06:25.247Z,6.53
2017-04-22T00:06:29.685Z,6.57
2017-04-22T00:06:34.110Z,6.6
2017-04-22T00:06:38.418Z,6.53
2017-04-22T00:06:42.839Z,6.54
2017-04-22T00:06:47.155Z,6.54
2017-04-22T00:06:51.464Z,6.58
2017-04-22T00:06:55.768Z,6.53
2017-04-22T00:07:00.098Z,6.57
2017-04-22T00:07:04.602Z,6.53
2017-04-22T00:07:08.919Z,6.48
2017-04-22T00:07:13.058Z,6.54
2017-04-22T00:07:17.482Z,6.51
2017-04-22T00:07:21.910Z,6.54
2017-04-22T00:07:26.332Z,6.51
2017-04-22T00:07:30.759Z,6.54
2017-04-22T00:07:35.185Z,6.51
2017-04-22T00:07:39.521Z,6.51
2017-04-22T00:07:43.942Z,6.53
2017-04-22T00:07:47.902Z,6.53
2017-04-22T00:07:52.210Z,6.43
2017-04-22T00:07:56.636Z,6.53
2017-04-22T00:08:01.067Z,6.51
2017-04-22T00:08:05.372Z,6.48
2017-04-22T00:08:09.689Z,6.4
2017-04-22T00:08:13.805Z,6.48
2017-04-22T00:08:18.403Z,6.48
2017-04-22T00:08:22.858Z,6.54
2017-04-22T00:08:27.320Z,6.42
2017-04-22T00:08:31.739Z,6.54
2017-04-22T00:08:36.049Z,6.51
2017-04-22T00:08:40.385Z,6.5
2017-04-22T00:08:44.694Z,6.53
2017-04-22T00:08:48.996Z,6.51
2017-04-22T00:08:53.185Z,6.36
2017-04-22T00:08:57.635Z,6.51
2017-04-22T00:09:02.064Z,6.51
2017-04-22T00:09:06.366Z,6.54
2017-04-22T00:09:10.797Z,6.51
2017-04-22T00:09:15.137Z,6.5
2017-04-22T00:09:19.456Z,6.43
2017-04-22T00:09:23.885Z,6.5
2017-04-22T00:09:28.235Z,6.5
2017-04-22T00:09:32.656Z,6.5
2017-04-22T00:09:37.078Z,6.43
2017-04-22T00:09:41.507Z,6.51
2017-04-22T00:09:45.938Z,6.39
2017-04-22T00:09:50.246Z,6.4
2017-04-22T00:09:54.668Z,6.51
2017-04-22T00:09:59.098Z,6.51
2017-04-22T00:10:03.410Z,6.42
2017-04-22T00:10:07.725Z,6.39
2017-04-22T00:10:12.037Z,6.43
2017-04-22T00:10:15.991Z,6.42
2017-04-22T00:10:20.306Z,6.45
2017-04-22T00:10:24.614Z,6.46
2017-04-22T00:10:29.041Z,6.42
2017-04-22T00:10:33.560Z,6.46
2017-04-22T00:10:37.868Z,6.42
2017-04-22T00:10:42.288Z,6.33
2017-04-22T00:10:46.733Z,6.39
2017-04-22T00:10:50.919Z,6.4
2017-04-22T00:10:55.341Z,6.42
2017-04-22T00:10:59.759Z,6.45
2017-04-22T00:11:04.074Z,6.46
2017-04-22T00:11:08.274Z,6.39
2017-04-22T00:11:12.702Z,6.46
2017-04-22T00:11:17.124Z,6.55
2017-04-22T00:11:21.543Z,6.42
2017-04-22T00:11:25.974Z,6.42
2017-04-22T00:11:30.411Z,6.42
2017-04-22T00:11:34.831Z,6.5
2017-04-22T00:11:39.254Z,6.5
2017-04-22T00:11:43.816Z,6.36
2017-04-22T00:11:48.128Z,6.43
2017-04-22T00:11:52.573Z,6.51
2017-04-22T00:11:57.001Z,6.5
2017-04-22T00:12:01.424Z,6.43
2017-04-22T00:12:06.004Z,6.42
2017-04-22T00:12:10.314Z,6.42
2017-04-22T00:12:14.522Z,6.38
2017-04-22T00:12:18.948Z,6.4
2017-04-22T00:12:23.370Z,6.45
2017-04-22T00:12:27.796Z,6.42
2017-04-22T00:12:32.222Z,6.43
2017-04-22T00:12:36.651Z,6.45
2017-04-22T00:12:41.094Z,6.43
2017-04-22T00:12:45.538Z,6.45
2017-04-22T00:12:49.847Z,6.43
2017-04-22T00:12:54.209Z,6.39
2017-04-22T00:12:58.656Z,6.39
2017-04-22T00:13:02.963Z,6.45
2017-04-22T00:13:07.406Z,6.33
2017-04-22T00:13:11.592Z,6.5
2017-04-22T00:13:15.906Z,6.43
2017-04-22T00:13:20.385Z,6.46
2017-04-22T00:13:24.597Z,6.45
2017-04-22T00:13:29.275Z,6.36
2017-04-22T00:13:33.583Z,6.46
2017-04-22T00:13:38.011Z,6.38
2017-04-22T00:13:42.442Z,6.38
2017-04-22T00:13:46.668Z,6.3
2017-04-22T00:13:51.091Z,6.39
2017-04-22T00:13:55.452Z,6.39
2017-04-22T00:13:59.882Z,6.45
2017-04-22T00:14:04.355Z,6.39
2017-04-22T00:14:08.549Z,6.39
2017-04-22T00:14:12.737Z,6.32
2017-04-22T00:14:17.170Z,6.35
2017-04-22T00:14:21.599Z,6.4
2017-04-22T00:14:26.184Z,6.35
2017-04-22T00:14:30.609Z,6.42
2017-04-22T00:14:35.037Z,6.5
2017-04-22T00:14:39.341Z,6.45
2017-04-22T00:14:43.647Z,6.32
2017-04-22T00:14:47.955Z,6.46
2017-04-22T00:14:52.270Z,6.45
2017-04-22T00:14:56.695Z,6.32
2017-04-22T00:15:01.127Z,6.33
2017-04-22T00:15:05.432Z,6.32
2017-04-22T00:15:09.630Z,6.4
2017-04-22T00:15:13.939Z,6.43
2017-04-22T00:15:18.364Z,6.38
2017-04-22T00:15:22.793Z,6.45
2017-04-22T00:15:27.219Z,6.32
2017-04-22T00:15:31.644Z,6.43
2017-04-22T00:15:35.842Z,6.36
2017-04-22T00:15:40.264Z,6.42
2017-04-22T00:15:44.566Z,6.39
2017-04-22T00:15:48.983Z,6.33
2017-04-22T00:15:53.293Z,6.35
2017-04-22T00:15:57.739Z,6.38
2017-04-22T00:16:02.182Z,6.36
2017-04-22T00:16:06.605Z,6.38
2017-04-22T00:16:10.794Z,6.36
2017-04-22T00:16:14.833Z,6.43
2017-04-22T00:16:19.402Z,6.33
2017-04-22T00:16:23.824Z,6.42
2017-04-22T00:16:28.244Z,6.33
2017-04-22T00:16:32.546Z,6.39
2017-04-22T00:16:36.969Z,6.39
2017-04-22T00:16:41.399Z,6.33
2017-04-22T00:16:45.698Z,6.33
2017-04-22T00:16:50.126Z,6.39
2017-04-22T00:16:54.542Z,6.3
2017-04-22T00:16:58.976Z,6.38
2017-04-22T00:17:03.405Z,6.32
2017-04-22T00:17:07.733Z,6.21
2017-04-22T00:17:11.805Z,6.33
2017-04-22T00:17:16.112Z,6.43
2017-04-22T00:17:20.451Z,6.38
2017-04-22T00:17:24.933Z,6.39
2017-04-22T00:17:29.371Z,6.33
2017-04-22T00:17:33.797Z,6.35
2017-04-22T00:17:38.217Z,6.4
2017-04-22T00:17:42.648Z,6.38
2017-04-22T00:17:47.115Z,6.4
2017-04-22T00:17:51.425Z,6.4
2017-04-22T00:17:55.855Z,6.35
2017-04-22T00:18:00.275Z,6.38
2017-04-22T00:18:04.853Z,6.35
2017-04-22T00:18:09.172Z,6.33
2017-04-22T00:18:13.484Z,6.3
2017-04-22T00:18:17.914Z,6.33
2017-04-22T00:18:22.358Z,6.39
2017-04-22T00:18:26.788Z,6.38
2017-04-22T00:18:31.125Z,6.36
2017-04-22T00:18:35.766Z,6.4
2017-04-22T00:18:40.200Z,6.3
2017-04-22T00:18:44.626Z,6.32
2017-04-22T00:18:49.052Z,6.35
2017-04-22T00:18:53.363Z,6.25
2017-04-22T00:18:57.684Z,6.38
2017-04-22T00:19:01.873Z,6.38
2017-04-22T00:19:06.179Z,6.35
2017-04-22T00:19:10.485Z,6.27
2017-04-22T00:19:14.446Z,6.3
2017-04-22T00:19:18.765Z,6.39
2017-04-22T00:19:23.202Z,6.35
2017-04-22T00:19:27.626Z,6.35
2017-04-22T00:19:31.837Z,6.33
2017-04-22T00:19:36.278Z,6.35
2017-04-22T00:19:40.698Z,6.35
2017-04-22T00:19:45.123Z,6.38
2017-04-22T00:19:49.425Z,6.27
2017-04-22T00:19:53.848Z,6.36
2017-04-22T00:19:58.294Z,6.35
2017-04-22T00:20:02.601Z,6.33
2017-04-22T00:20:06.904Z,6.25
2017-04-22T00:20:11.330Z,6.39
2017-04-22T00:20:15.750Z,6.35
2017-04-22T00:20:20.176Z,6.3
2017-04-22T00:20:24.600Z,6.35
2017-04-22T00:20:29.018Z,6.36
2017-04-22T00:20:33.325Z,6.3
2017-04-22T00:20:37.520Z,6.24
2017-04-22T00:20:41.828Z,6.35
2017-04-22T00:20:46.253Z,6.38
2017-04-22T00:20:50.710Z,6.28
2017-04-22T00:20:55.131Z,6.38
2017-04-22T00:20:59.570Z,6.3
2017-04-22T00:21:04.343Z,6.35
2017-04-22T00:21:08.646Z,6.33
2017-04-22T00:21:12.841Z,6.35
2017-04-22T00:21:17.261Z,6.33
2017-04-22T00:21:21.681Z,6.32
2017-04-22T00:21:26.139Z,6.36
2017-04-22T00:21:30.577Z,6.27
2017-04-22T00:21:34.996Z,6.27
2017-04-22T00:21:39.414Z,6.33
2017-04-22T00:21:43.846Z,6.25
2017-04-22T00:21:48.293Z,6.28
2017-04-22T00:21:52.721Z,6.3
2017-04-22T00:21:57.099Z,6.27
2017-04-22T00:22:01.761Z,6.27
2017-04-22T00:22:06.075Z,6.27
2017-04-22T00:22:10.520Z,6.21
2017-04-22T00:22:14.710Z,6.27
2017-04-22T00:22:19.010Z,6.27
2017-04-22T00:22:23.430Z,6.27
2017-04-22T00:22:27.623Z,6.25
2017-04-22T00:22:32.064Z,6.27
2017-04-22T00:22:36.369Z,6.25
2017-04-22T00:22:40.789Z,6.21
2017-04-22T00:22:45.237Z,6.24
2017-04-22T00:22:49.660Z,6.33
2017-04-22T00:22:53.971Z,6.28
2017-04-22T00:22:58.279Z,6.28
2017-04-22T00:23:02.701Z,6.24
2017-04-22T00:23:07.165Z,6.25
2017-04-22T00:23:11.614Z,6.24
2017-04-22T00:23:15.925Z,6.2
2017-04-22T00:23:19.992Z,6.25
2017-04-22T00:23:24.304Z,6.17
2017-04-22T00:23:28.729Z,6.21
2017-04-22T00:23:33.166Z,6.35
2017-04-22T00:23:37.499Z,6.25
2017-04-22T00:23:41.921Z,6.21
2017-04-22T00:23:46.356Z,6.17
2017-04-22T00:23:50.660Z,6.24
2017-04-22T00:23:54.966Z,6.21
2017-04-22T00:23:59.392Z,6.17
2017-04-22T00:24:03.814Z,6.19
2017-04-22T00:24:08.008Z,6.32
2017-04-22T00:24:12.312Z,6.28
2017-04-22T00:24:16.859Z,6.28
2017-04-22T00:24:21.325Z,6.19
2017-04-22T00:24:25.763Z,6.19
2017-04-22T00:24:30.065Z,6.3
2017-04-22T00:24:34.364Z,6.2
2017-04-22T00:24:38.682Z,6.17
2017-04-22T00:24:43.109Z,6.14
2017-04-22T00:24:47.533Z,6.25
2017-04-22T00:24:51.952Z,6.1
2017-04-22T00:24:56.143Z,6.2
2017-04-22T00:25:00.577Z,6.25
2017-04-22T00:25:04.882Z,6.19
2017-04-22T00:25:09.379Z,6.17
2017-04-22T00:25:13.689Z,6.19
2017-04-22T00:25:18.136Z,6.14
2017-04-22T00:25:22.751Z,6.25
2017-04-22T00:25:27.325Z,6.19
2017-04-22T00:25:31.748Z,6.17
2017-04-22T00:25:36.054Z,6.25
2017-04-22T00:25:40.486Z,6.27
2017-04-22T00:25:44.906Z,6.19
2017-04-22T00:25:49.212Z,6.24
2017-04-22T00:25:53.283Z,6.25
2017-04-22T00:25:57.712Z,6.17
2017-04-22T00:26:02.193Z,6.14
2017-04-22T00:26:06.607Z,6.1
2017-04-22T00:26:10.795Z,6.14
2017-04-22T00:26:15.099Z,6.16
2017-04-22T00:26:19.543Z,6.13
2017-04-22T00:26:23.967Z,6.17
2017-04-22T00:26:28.391Z,6.11
2017-04-22T00:26:32.816Z,6.16
2017-04-22T00:26:37.242Z,6.11
2017-04-22T00:26:41.434Z,6.16
2017-04-22T00:26:45.856Z,6.08
2017-04-22T00:26:50.276Z,6.1
2017-04-22T00:26:54.578Z,6.16
2017-04-22T00:26:59.000Z,6.16
2017-04-22T00:27:03.662Z,6.17
2017-04-22T00:27:07.968Z,6.11
2017-04-22T00:27:12.385Z,6.14
2017-04-22T00:27:16.805Z,6.14
2017-04-22T00:27:21.233Z,6.06
2017-04-22T00:27:25.662Z,6.19
2017-04-22T00:27:29.965Z,6.11
2017-04-22T00:27:34.392Z,6.19
2017-04-22T00:27:38.853Z,6.14
2017-04-22T00:27:43.341Z,6.11
2017-04-22T00:27:47.666Z,6.24
2017-04-22T00:27:52.098Z,6.14
2017-04-22T00:27:56.302Z,6.1
2017-04-22T00:28:00.719Z,6.1
2017-04-22T00:28:05.509Z,6.14
2017-04-22T00:28:09.834Z,6.16
2017-04-22T00:28:14.142Z,6.05
2017-04-22T00:28:18.585Z,6.13
2017-04-22T00:28:22.772Z,6.11
2017-04-22T00:28:27.202Z,6.14
2017-04-22T00:28:31.629Z,6.11
2017-04-22T00:28:36.074Z,6.16
2017-04-22T00:28:40.511Z,6.14
2017-04-22T00:28:44.954Z,6.06
2017-04-22T00:28:49.448Z,6.16
2017-04-22T00:28:53.888Z,6.03
2017-04-22T00:28:58.191Z,6.17
2017-04-22T00:29:02.872Z,6.24
2017-04-22T00:29:07.313Z,6.1
2017-04-22T00:29:11.628Z,6.08
2017-04-22T00:29:15.707Z,6.1
2017-04-22T00:29:20.131Z,6.1
2017-04-22T00:29:24.563Z,6.13
2017-04-22T00:29:28.749Z,6.14
2017-04-22T00:29:33.175Z,6.14
2017-04-22T00:29:37.608Z,6.13
2017-04-22T00:29:41.914Z,6.03
2017-04-22T00:29:46.222Z,6.21
2017-04-22T00:29:50.646Z,6.14
2017-04-22T00:29:55.371Z,6.1
2017-04-22T00:29:59.690Z,6.17
2017-04-22T00:30:04.110Z,6.08
2017-04-22T00:30:08.419Z,6.06
2017-04-22T00:30:12.727Z,6.02
2017-04-22T00:30:16.915Z,6.14
2017-04-22T00:30:21.338Z,6.03
2017-04-22T00:30:25.762Z,6.1
2017-04-22T00:30:30.185Z,6.08
2017-04-22T00:30:34.630Z,6.05
2017-04-22T00:30:39.057Z,6.08
2017-04-22T00:30:43.482Z,6.05
2017-04-22T00:30:47.906Z,6.05
2017-04-22T00:30:52.332Z,6.06
2017-04-22T00:30:56.530Z,6.06
2017-04-22T00:31:00.956Z,6.11
2017-04-22T00:31:05.782Z,6.08
2017-04-22T00:31:10.165Z,6.06
2017-04-22T00:31:14.471Z,6.14
2017-04-22T00:31:18.893Z,6.06
2017-04-22T00:31:23.331Z,6.13
2017-04-22T00:31:27.752Z,6.08
2017-04-22T00:31:32.175Z,6.16
2017-04-22T00:31:36.598Z,6.06
2017-04-22T00:31:40.794Z,6.06
2017-04-22T00:31:45.226Z,6.05
2017-04-22T00:31:49.646Z,6.06
2017-04-22T00:31:54.066Z,6.05
2017-04-22T00:31:58.259Z,6.05
2017-04-22T00:32:02.795Z,6.05
2017-04-22T00:32:06.994Z,6.17
2017-04-22T00:32:11.576Z,6.11
2017-04-22T00:32:15.985Z,6.1
2017-04-22T00:32:20.404Z,6.02
2017-04-22T00:32:24.829Z,6.1
2017-04-22T00:32:29.288Z,6.02
2017-04-22T00:32:33.710Z,6.06
2017-04-22T00:32:38.131Z,6.11
2017-04-22T00:32:42.556Z,6.13
2017-04-22T00:32:46.878Z,6.08
2017-04-22T00:32:51.301Z,6.08
2017-04-22T00:32:55.729Z,6.16
2017-04-22T00:33:00.034Z,6.16
2017-04-22T00:33:04.492Z,6.11
2017-04-22T00:33:08.828Z,6.06
2017-04-22T00:33:13.265Z,6.16
2017-04-22T00:33:17.466Z,6.06
2017-04-22T00:33:21.923Z,6.05
2017-04-22T00:33:26.421Z,6.11
2017-04-22T00:33:30.731Z,6.1
2017-04-22T00:33:35.164Z,6.05
2017-04-22T00:33:39.588Z,6.16
2017-04-22T00:33:44.012Z,6.1
2017-04-22T00:33:48.435Z,6.11
2017-04-22T00:33:52.860Z,6.05
2017-04-22T00:33:57.291Z,6.06
2017-04-22T00:34:01.860Z,6.05
2017-04-22T00:34:06.287Z,6.14
2017-04-22T00:34:10.595Z,6.08
2017-04-22T00:34:14.910Z,6.05
2017-04-22T00:34:19.218Z,6.1
2017-04-22T00:34:23.525Z,6.16
2017-04-22T00:34:28.094Z,6.1
2017-04-22T00:34:32.426Z,6.11
2017-04-22T00:34:36.887Z,6.16
2017-04-22T00:34:41.316Z,6.1
2017-04-22T00:34:45.735Z,6.13
2017-04-22T00:34:50.043Z,6.08
2017-04-22T00:34:54.470Z,6.05
2017-04-22T00:34:58.903Z,6.05
2017-04-22T00:35:03.287Z,6.05
2017-04-22T00:35:07.709Z,6.13
2017-04-22T00:35:12.010Z,6.06
2017-04-22T00:35:16.321Z,6.1
2017-04-22T00:35:20.749Z,6.11
2017-04-22T00:35:24.948Z,6.11
2017-04-22T00:35:29.372Z,6.1
2017-04-22T00:35:33.795Z,6.13
2017-04-22T00:35:38.545Z,6.11
2017-04-22T00:35:42.989Z,6.08
2017-04-22T00:35:47.293Z,6.1
2017-04-22T00:35:51.600Z,6.1
2017-04-22T00:35:55.902Z,6.06
2017-04-22T00:36:00.322Z,6.1
2017-04-22T00:36:04.749Z,6.1
2017-04-22T00:36:08.952Z,6.03
2017-04-22T00:36:13.141Z,6.06
2017-04-22T00:36:17.444Z,6.03
2017-04-22T00:36:21.654Z,6.13
2017-04-22T00:36:26.088Z,6.08
2017-04-22T00:36:30.513Z,6.08
2017-04-22T00:36:34.963Z,6.06
2017-04-22T00:36:39.384Z,6.1
2017-04-22T00:36:43.805Z,6.11
2017-04-22T00:36:48.273Z,6.11
2017-04-22T00:36:52.697Z,6.1
2017-04-22T00:36:57.116Z,6.08
2017-04-22T00:37:01.418Z,6.14
2017-04-22T00:37:05.987Z,6.13
2017-04-22T00:37:10.058Z,6.2
2017-04-22T00:37:14.481Z,6.11
2017-04-22T00:37:18.909Z,6.06
2017-04-22T00:37:23.334Z,6.16
2017-04-22T00:37:27.758Z,6.11
2017-04-22T00:37:32.074Z,6.1
2017-04-22T00:37:36.384Z,6.03
2017-04-22T00:37:40.810Z,6.13
2017-04-22T00:37:45.227Z,6.14
2017-04-22T00:37:49.543Z,6.03
2017-04-22T00:37:53.959Z,6.11
2017-04-22T00:37:58.516Z,6.17
2017-04-22T00:38:02.713Z,6.1
2017-04-22T00:38:07.018Z,6.08
2017-04-22T00:38:11.447Z,6.08
2017-04-22T00:38:15.882Z,6.13
2017-04-22T00:38:20.231Z,6.11
2017-04-22T00:38:24.659Z,6.13
2017-04-22T00:38:29.081Z,6.02
2017-04-22T00:38:33.506Z,6.03
2017-04-22T00:38:37.936Z,6.1
2017-04-22T00:38:42.262Z,6.11
2017-04-22T00:38:46.449Z,6.03
2017-04-22T00:38:50.889Z,6.11
2017-04-22T00:38:55.323Z,6.14
2017-04-22T00:38:59.649Z,6.1
2017-04-22T00:39:04.180Z,6.13
2017-04-22T00:39:08.366Z,6.14
2017-04-22T00:39:12.554Z,6.13
2017-04-22T00:39:16.983Z,6.13
2017-04-22T00:39:21.419Z,6.14
2017-04-22T00:39:25.843Z,6.14
2017-04-22T00:39:30.304Z,6.1
2017-04-22T00:39:34.608Z,6.14
2017-04-22T00:39:39.024Z,6.1
2017-04-22T00:39:43.458Z,6.17
2017-04-22T00:39:47.910Z,6.1
2017-04-22T00:39:52.328Z,6.06
2017-04-22T00:39:56.758Z,6.14
2017-04-22T00:40:01.175Z,6.1
2017-04-22T00:40:05.362Z,6.05
2017-04-22T00:40:10.190Z,6.16
2017-04-22T00:40:14.730Z,6.1
2017-04-22T00:40:19.151Z,6.13
2017-04-22T00:40:23.470Z,6.06
2017-04-22T00:40:27.923Z,6.11
2017-04-22T00:40:32.359Z,6.13
2017-04-22T00:40:36.792Z,6.11
2017-04-22T00:40:41.213Z,6.11
2017-04-22T00:40:45.702Z,6.14
2017-04-22T00:40:50.007Z,6.06
2017-04-22T00:40:54.439Z,6.1
2017-04-22T00:40:58.859Z,6.11
2017-04-22T00:41:03.157Z,6.14
2017-04-22T00:41:07.586Z,6.1
2017-04-22T00:41:11.905Z,6.16
2017-04-22T00:41:16.509Z,6.14
2017-04-22T00:41:21.039Z,6.08
2017-04-22T00:41:25.461Z,6.1
2017-04-22T00:41:29.890Z,6.08
2017-04-22T00:41:34.314Z,6.14
2017-04-22T00:41:38.614Z,6.11
2017-04-22T00:41:43.059Z,5.99
2017-04-22T00:41:47.480Z,6.1
2017-04-22T00:41:51.794Z,6.06
2017-04-22T00:41:56.212Z,6.06
2017-04-22T00:42:00.516Z,6.1
2017-04-22T00:42:04.826Z,6.11
2017-04-22T00:42:09.014Z,6.05
2017-04-22T00:42:13.207Z,6.08
2017-04-22T00:42:17.398Z,6.03
2017-04-22T00:42:21.816Z,6.02
2017-04-22T00:42:26.341Z,6.08
2017-04-22T00:42:31.138Z,6.02
2017-04-22T00:42:35.453Z,6.16
2017-04-22T00:42:39.875Z,6.03
2017-04-22T00:42:44.304Z,6.02
2017-04-22T00:42:48.630Z,6.06
2017-04-22T00:42:53.066Z,6.05
2017-04-22T00:42:57.526Z,6.08
2017-04-22T00:43:02.048Z,6.1
2017-04-22T00:43:06.500Z,6.02
2017-04-22T00:43:10.814Z,6.1
2017-04-22T00:43:14.892Z,6.06
2017-04-22T00:43:19.219Z,6.05
2017-04-22T00:43:23.531Z,6.05
2017-04-22T00:43:27.972Z,6.02
2017-04-22T00:43:32.432Z,6.08
2017-04-22T00:43:36.916Z,6.03
2017-04-22T00:43:41.245Z,6.11
2017-04-22T00:43:45.666Z,6.03
2017-04-22T00:43:49.976Z,6.11
2017-04-22T00:43:54.401Z,6.01
2017-04-22T00:43:58.832Z,6.02
2017-04-22T00:44:03.418Z,6.03
2017-04-22T00:44:07.731Z,6.06
2017-04-22T00:44:12.033Z,6.06
2017-04-22T00:44:16.224Z,6.05
2017-04-22T00:44:20.675Z,6.11
2017-04-22T00:44:24.985Z,6.08
2017-04-22T00:44:29.408Z,5.96
2017-04-22T00:44:33.711Z,6.08
2017-04-22T00:44:38.134Z,6.08
2017-04-22T00:44:42.732Z,6.03
2017-04-22T00:44:47.172Z,6.08
2017-04-22T00:44:51.480Z,6.05
2017-04-22T00:44:55.913Z,6.1
2017-04-22T00:45:00.354Z,5.98
2017-04-22T00:45:04.878Z,6.06
2017-04-22T00:45:09.306Z,6.02
2017-04-22T00:45:13.498Z,6.05
2017-04-22T00:45:17.923Z,6.11
2017-04-22T00:45:22.405Z,6.06
2017-04-22T00:45:26.830Z,5.96
2017-04-22T00:45:31.262Z,6.03
2017-04-22T00:45:35.682Z,5.98
2017-04-22T00:45:39.987Z,5.98
2017-04-22T00:45:44.070Z,5.95
2017-04-22T00:45:48.522Z,5.98
2017-04-22T00:45:52.956Z,5.92
2017-04-22T00:45:57.382Z,6.02
2017-04-22T00:46:01.820Z,6.06
2017-04-22T00:46:06.127Z,6.02
2017-04-22T00:46:10.313Z,6.06
2017-04-22T00:46:14.747Z,6.11
2017-04-22T00:46:19.169Z,5.95
2017-04-22T00:46:23.596Z,6.11
2017-04-22T00:46:28.019Z,6.01
2017-04-22T00:46:32.440Z,6.1
2017-04-22T00:46:36.764Z,6.08
2017-04-22T00:46:41.187Z,6.02
2017-04-22T00:46:45.380Z,6.08
2017-04-22T00:46:49.809Z,6.01
2017-04-22T00:46:54.234Z,6.06
2017-04-22T00:46:58.652Z,6.06
2017-04-22T00:47:03.072Z,6.05
2017-04-22T00:47:07.268Z,5.99
2017-04-22T00:47:11.580Z,6.02
2017-04-22T00:47:15.881Z,6.05
2017-04-22T00:47:20.304Z,6.06
2017-04-22T00:47:24.735Z,6.03
2017-04-22T00:47:29.053Z,6.05
2017-04-22T00:47:33.388Z,6.02
2017-04-22T00:47:37.818Z,5.92
2017-04-22T00:47:42.239Z,6.05
2017-04-22T00:47:46.660Z,6.05
2017-04-22T00:47:50.976Z,6.1
2017-04-22T00:47:55.441Z,6.03
2017-04-22T00:47:59.905Z,6.06
2017-04-22T00:48:04.337Z,6.03
2017-04-22T00:48:08.729Z,5.92
2017-04-22T00:48:13.051Z,5.93
2017-04-22T00:48:17.474Z,5.95
2017-04-22T00:48:21.782Z,6.01
2017-04-22T00:48:26.094Z,5.96
2017-04-22T00:48:30.521Z,5.9
2017-04-22T00:48:34.955Z,5.96
2017-04-22T00:48:39.394Z,6.01
2017-04-22T00:48:43.703Z,6.08
2017-04-22T00:48:48.023Z,6.01
2017-04-22T00:48:52.459Z,6.03
2017-04-22T00:48:56.912Z,5.95
2017-04-22T00:49:01.345Z,5.95
2017-04-22T00:49:05.774Z,5.93
2017-04-22T00:49:10.084Z,6.06
2017-04-22T00:49:14.276Z,5.99
2017-04-22T00:49:18.809Z,5.99
2017-04-22T00:49:23.238Z,6.06
2017-04-22T00:49:27.542Z,6.01
2017-04-22T00:49:31.844Z,6.02
2017-04-22T00:49:36.266Z,6.01
2017-04-22T00:49:40.695Z,6.05
2017-04-22T00:49:45.117Z,5.96
2017-04-22T00:49:49.538Z,5.99
2017-04-22T00:49:53.844Z,5.93
2017-04-22T00:49:58.278Z,6.01
2017-04-22T00:50:02.709Z,6.01
2017-04-22T00:50:07.009Z,5.98
2017-04-22T00:50:11.077Z,5.96
2017-04-22T00:50:15.500Z,5.98
2017-04-22T00:50:20.062Z,5.99
2017-04-22T00:50:24.495Z,6.02
2017-04-22T00:50:29.100Z,6.02
2017-04-22T00:50:33.520Z,5.95
2017-04-22T00:50:37.960Z,6.02
2017-04-22T00:50:42.389Z,6.03
2017-04-22T00:50:46.578Z,5.98
2017-04-22T00:50:50.998Z,5.93
2017-04-22T00:50:55.185Z,6.05
2017-04-22T00:50:59.613Z,5.92
2017-04-22T00:51:04.232Z,5.95
2017-04-22T00:51:08.656Z,5.96
2017-04-22T00:51:13.075Z,6.03
2017-04-22T00:51:17.261Z,5.95
2017-04-22T00:51:21.703Z,6.01
2017-04-22T00:51:26.127Z,5.96
2017-04-22T00:51:30.586Z,6.1
2017-04-22T00:51:34.769Z,6.06
2017-04-22T00:51:39.194Z,6.06
2017-04-22T00:51:43.616Z,5.98
2017-04-22T00:51:48.039Z,5.98
2017-04-22T00:51:52.229Z,5.99
2017-04-22T00:51:56.658Z,5.92
2017-04-22T00:52:01.095Z,5.88
2017-04-22T00:52:05.615Z,6.05
2017-04-22T00:52:09.918Z,5.96
2017-04-22T00:52:14.347Z,5.96
2017-04-22T00:52:18.769Z,6.03
2017-04-22T00:52:23.077Z,6.03
2017-04-22T00:52:27.513Z,5.96
2017-04-22T00:52:31.697Z,5.98
2017-04-22T00:52:36.139Z,5.98
2017-04-22T00:52:40.604Z,6.01
2017-04-22T00:52:45.126Z,5.99
2017-04-22T00:52:49.441Z,6.03
2017-04-22T00:52:53.762Z,5.98
2017-04-22T00:52:58.215Z,6.01
2017-04-22T00:53:02.689Z,5.98
2017-04-22T00:53:07.116Z,5.96
2017-04-22T00:53:11.419Z,5.95
2017-04-22T00:53:15.499Z,5.95
2017-04-22T00:53:19.920Z,5.96
2017-04-22T00:53:24.350Z,5.98
2017-04-22T00:53:28.428Z,5.98
2017-04-22T00:53:32.748Z,5.95
2017-04-22T00:53:37.173Z,5.98
2017-04-22T00:53:41.481Z,5.95
2017-04-22T00:53:46.099Z,5.98
2017-04-22T00:53:50.525Z,5.93
2017-04-22T00:53:54.838Z,6.03
2017-04-22T00:53:59.260Z,5.95
2017-04-22T00:54:03.728Z,6.02
2017-04-22T00:54:08.168Z,5.93
2017-04-22T00:54:12.479Z,5.98
2017-04-22T00:54:16.556Z,5.96
2017-04-22T00:54:20.868Z,5.93
2017-04-22T00:54:25.204Z,5.98
2017-04-22T00:54:29.620Z,5.98
2017-04-22T00:54:34.044Z,5.98
2017-04-22T00:54:38.473Z,5.88
2017-04-22T00:54:42.783Z,6.01
2017-04-22T00:54:47.094Z,5.98
2017-04-22T00:54:51.404Z,6.05
2017-04-22T00:54:56.179Z,5.96
2017-04-22T00:55:00.732Z,5.96
2017-04-22T00:55:05.065Z,5.96
2017-04-22T00:55:09.374Z,5.99
2017-04-22T00:55:13.680Z,5.98
2017-04-22T00:55:18.002Z,5.98
2017-04-22T00:55:22.436Z,5.88
2017-04-22T00:55:26.855Z,5.95
2017-04-22T00:55:31.275Z,6.02
2017-04-22T00:55:35.695Z,5.96
2017-04-22T00:55:40.122Z,5.92
2017-04-22T00:55:44.433Z,5.98
2017-04-22T00:55:48.858Z,5.92
2017-04-22T00:55:53.283Z,5.92
2017-04-22T00:55:57.600Z,5.96
2017-04-22T00:56:02.255Z,6.01
2017-04-22T00:56:06.706Z,5.98
2017-04-22T00:56:10.779Z,5.92
2017-04-22T00:56:15.096Z,5.99
2017-04-22T00:56:19.429Z,5.95
2017-04-22T00:56:23.846Z,6.01
2017-04-22T00:56:28.273Z,5.98
2017-04-22T00:56:32.697Z,5.96
2017-04-22T00:56:37.151Z,5.98
2017-04-22T00:56:41.570Z,5.95
2017-04-22T00:56:46.001Z,6.01
2017-04-22T00:56:50.312Z,5.92
2017-04-22T00:56:54.503Z,6.02
2017-04-22T00:56:58.936Z,5.98
2017-04-22T00:57:03.362Z,5.96
2017-04-22T00:57:07.799Z,5.99
2017-04-22T00:57:12.135Z,5.95
2017-04-22T00:57:16.342Z,5.98
2017-04-22T00:57:20.655Z,5.92
2017-04-22T00:57:24.959Z,5.98
2017-04-22T00:57:29.382Z,5.98
2017-04-22T00:57:33.732Z,5.98
2017-04-22T00:57:38.163Z,6.06
2017-04-22T00:57:42.600Z,5.92
2017-04-22T00:57:46.911Z,5.98
2017-04-22T00:57:51.251Z,6.01
2017-04-22T00:57:55.678Z,5.95
2017-04-22T00:58:00.110Z,6.03
2017-04-22T00:58:04.793Z,5.95
2017-04-22T00:58:08.994Z,5.96
2017-04-22T00:58:13.299Z,6.01
2017-04-22T00:58:17.735Z,6.01
2017-04-22T00:58:22.262Z,5.98
2017-04-22T00:58:26.700Z,5.96
2017-04-22T00:58:31.144Z,5.93